Time;durP1;ratioP1;P1;durP2;ratioP2;P2;SDS_P1;SDS_P2;PMS_P1;PMS_P2;Temp;Humidity;BMP_temperature;BMP_pressure;BME280_temperature;BME280_humidity;BME280_pressure;Samples;Min_cycle;Max_cycle;Signal;HPM_P1;HPM_P2
2023/10/17 04:44:40;;;;;;;10.00;5.50;;;;;;;4.31;100.00;100510.34;106736;1287;22552;-59
2023/10/17 04:49:55;;;;;;;;;;;;;;;4.38;100.00;100513.15;106472;1298;22727;-56
2023/10/17 04:52:40;;;;;;;17.50;7.60;;;;;;;4.41;100.00;100517.21;106779;1298;22694;-59
2023/10/17 04:55:30;;;;;;;11.60;6.90;;;;;;;4.44;100.00;100520.56;105770;1302;22589;-60
2023/10/17 04:59:02;;;;;;;15.10;8.90;;;;;;;4.44;100.00;100520.91;105513;1300;22600;-58
2023/10/17 05:01:36;;;;;;;16.50;10.60;;;;;;;4.43;100.00;100521.92;105850;1297;22439;-56
2023/10/17 05:04:31;;;;;;;15.30;9.40;;;;;;;4.41;100.00;100521.00;106232;1296;23223;-59
2023/10/17 05:07:16;;;;;;;11.00;6.90;;;;;;;4.41;100.00;100526.69;106203;1302;23379;-59
2023/10/17 06:18:07;;;;;;;8.20;5.60;;;;;;;5.50;100.00;100603.27;106296;1298;23377;-60
2023/10/17 06:21:35;;;;;;;8.00;5.80;;;;;;;5.50;100.00;100606.55;106249;1298;22544;-59
2023/10/17 06:30:29;;;;;;;18.90;5.90;;;;;;;5.47;100.00;100601.98;106509;1306;23454;-57
2023/10/17 06:33:19;;;;;;;10.40;6.80;;;;;;;5.50;100.00;100614.33;106550;1291;22652;-59
2023/10/17 06:35:54;;;;;;;11.00;6.40;;;;;;;5.50;100.00;100610.36;106073;1301;23824;-58
2023/10/17 06:38:36;;;;;;;13.10;7.00;;;;;;;5.51;100.00;100608.67;105749;1300;22466;-59
2023/10/17 06:41:14;;;;;;;12.00;7.80;;;;;;;5.59;100.00;100614.05;106079;1298;25959;-59
2023/10/17 06:43:47;;;;;;;13.30;6.70;;;;;;;5.64;100.00;100615.73;106498;1301;22821;-61
2023/10/17 06:46:55;;;;;;;17.80;8.40;;;;;;;5.70;100.00;100622.12;105620;1303;22574;-59
2023/10/17 06:54:49;;;;;;;11.80;7.40;;;;;;;6.02;100.00;100629.34;106400;1303;23442;-57
2023/10/17 06:57:24;;;;;;;20.80;8.40;;;;;;;6.16;100.00;100621.17;107072;1300;22411;-60
2023/10/17 06:59:53;;;;;;;10.30;6.90;;;;;;;6.32;100.00;100624.32;106992;1298;22258;-58
2023/10/17 07:02:28;;;;;;;9.80;6.50;;;;;;;6.45;100.00;100619.23;105054;1306;22857;-60
2023/10/17 07:05:14;;;;;;;12.00;7.20;;;;;;;6.56;100.00;100623.97;106786;1288;22571;-58
2023/10/17 07:07:45;;;;;;;;;;;;;;;6.60;100.00;100626.47;106815;1298;23345;-55
2023/10/17 07:13:49;;;;;;;10.60;6.60;;;;;;;6.65;100.00;100625.38;106423;1298;22250;-59
2023/10/17 07:16:41;;;;;;;9.00;6.60;;;;;;;6.70;100.00;100626.86;107090;1295;23884;-55
2023/10/17 07:21:23;;;;;;;10.90;6.30;;;;;;;6.75;100.00;100626.98;106257;1298;22693;-59
2023/10/17 07:23:27;;;;;;;11.80;6.50;;;;;;;6.83;100.00;100624.02;106698;1298;23230;-59
2023/10/17 07:26:14;;;;;;;12.00;7.20;;;;;;;6.92;100.00;100615.69;105009;1300;22202;-57
2023/10/17 07:29:14;;;;;;;7.10;5.50;;;;;;;7.08;100.00;100620.52;105458;1303;22745;-59
2023/10/17 07:34:33;;;;;;;14.30;7.10;;;;;;;7.30;100.00;100626.48;105882;1307;22601;-57
2023/10/17 07:42:45;;;;;;;12.30;7.00;;;;;;;7.64;99.32;100633.34;106256;1297;22787;-58
2023/10/17 07:45:55;;;;;;;9.40;6.30;;;;;;;7.76;98.98;100630.23;106166;1301;22616;-54
2023/10/17 07:52:22;;;;;;;9.10;6.10;;;;;;;7.93;96.05;100640.95;105827;1287;22570;-55
2023/10/17 07:55:17;;;;;;;8.10;5.30;;;;;;;7.92;95.50;100644.58;106309;1295;22576;-54
2023/10/17 07:58:06;;;;;;;9.60;6.00;;;;;;;7.99;95.15;100653.72;106332;1297;22593;-58
2023/10/17 08:00:51;;;;;;;9.10;5.10;;;;;;;8.07;95.08;100653.67;105843;1285;22450;-60
2023/10/17 08:03:27;;;;;;;7.60;4.70;;;;;;;8.10;93.40;100666.74;106167;1298;22559;-58
2023/10/17 08:06:07;;;;;;;9.80;6.20;;;;;;;8.04;92.35;100662.31;106630;1301;22675;-58
2023/10/17 08:12:29;;;;;;;10.30;5.50;;;;;;;8.13;92.27;100668.19;105637;1298;22798;-59
2023/10/17 08:15:19;;;;;;;10.90;6.20;;;;;;;8.27;93.25;100669.63;106649;1289;22603;-56
2023/10/17 08:25:39;;;;;;;7.80;4.80;;;;;;;8.48;90.01;100680.39;106470;1299;23374;-59
2023/10/17 08:29:08;;;;;;;7.80;4.90;;;;;;;8.48;89.35;100683.54;105971;1301;27047;-60
2023/10/17 08:31:36;;;;;;;5.50;4.30;;;;;;;8.47;88.75;100688.23;105960;1295;25291;-60
2023/10/17 08:34:12;;;;;;;5.40;4.40;;;;;;;8.49;88.24;100697.11;106034;1299;22555;-57
2023/10/17 08:36:53;;;;;;;6.40;4.50;;;;;;;8.53;88.22;100690.38;107649;1298;22513;-60
2023/10/17 08:39:51;;;;;;;7.50;4.30;;;;;;;8.55;88.61;100696.14;106424;1295;22616;-59
2023/10/17 08:42:36;;;;;;;10.30;4.80;;;;;;;8.56;88.97;100697.55;106142;1298;23260;-56
2023/10/17 08:46:16;;;;;;;8.10;4.70;;;;;;;8.49;87.88;100700.76;105622;1301;23068;-57
2023/10/17 08:49:46;;;;;;;9.30;4.90;;;;;;;8.36;88.22;100698.83;105614;1280;24295;-60
2023/10/17 08:52:37;;;;;;;6.50;4.30;;;;;;;8.37;89.09;100701.78;106634;1282;22182;-55
2023/10/17 08:55:06;;;;;;;7.60;4.20;;;;;;;8.46;88.08;100702.62;106664;1298;22466;-56
2023/10/17 08:57:37;;;;;;;5.00;3.80;;;;;;;8.52;87.51;100702.72;106929;1295;22564;-61
2023/10/17 09:02:48;;;;;;;9.20;4.40;;;;;;;8.58;86.83;100704.02;106511;1299;22299;-56
2023/10/17 09:09:17;;;;;;;3.80;3.10;;;;;;;8.56;85.95;100697.89;105541;1307;23164;-56
2023/10/17 09:26:56;;;;;;;5.50;3.60;;;;;;;8.41;84.92;100695.09;106091;1298;22641;-60
2023/10/17 09:30:05;;;;;;;5.70;3.40;;;;;;;8.46;84.77;100694.46;105912;1288;22600;-60
2023/10/17 09:32:58;;;;;;;4.40;3.20;;;;;;;8.55;83.22;100695.80;106587;1298;22445;-58
2023/10/17 09:35:26;;;;;;;9.10;5.10;;;;;;;8.60;82.44;100696.04;107179;1298;22600;-59
2023/10/17 09:38:05;;;;;;;10.90;3.70;;;;;;;8.65;82.12;100697.17;106009;1298;25284;-57
2023/10/17 09:40:35;;;;;;;10.30;5.00;;;;;;;8.71;81.82;100694.11;105940;1303;25281;-56
2023/10/17 09:43:17;;;;;;;4.70;3.50;;;;;;;8.76;82.07;100691.06;106873;1283;22237;-55
2023/10/17 09:45:52;;;;;;;5.60;4.00;;;;;;;8.79;81.32;100699.27;106169;1289;23149;-60
2023/10/17 09:48:27;;;;;;;4.50;3.20;;;;;;;8.75;79.64;100689.83;106693;1298;22995;-59
2023/10/17 09:50:58;;;;;;;6.60;3.60;;;;;;;8.76;80.03;100681.48;106441;1299;22335;-60
2023/10/17 09:53:29;;;;;;;4.70;2.80;;;;;;;8.81;78.27;100678.08;107620;1296;22372;-60
2023/10/17 09:55:58;;;;;;;7.70;3.70;;;;;;;8.83;77.14;100677.05;105762;1298;22460;-55
2023/10/17 09:58:28;;;;;;;6.40;3.70;;;;;;;8.81;78.39;100674.94;106319;1298;23652;-57
2023/10/17 10:01:05;;;;;;;3.10;2.80;;;;;;;8.98;77.89;100673.77;106003;1294;23803;-55
2023/10/17 10:03:41;;;;;;;5.10;3.40;;;;;;;9.16;76.50;100675.05;106817;1300;23351;-55
2023/10/17 10:06:31;;;;;;;5.10;2.50;;;;;;;9.31;75.96;100673.64;106611;1295;22310;-57
2023/10/17 10:09:58;;;;;;;7.70;11.00;;;;;;;9.30;74.86;100672.23;106921;1296;22738;-62
2023/10/17 10:13:07;;;;;;;9.40;5.00;;;;;;;9.19;74.77;100667.25;106165;1301;22602;-60
2023/10/17 10:16:02;;;;;;;3.40;2.80;;;;;;;9.19;73.21;100661.84;106400;1301;22694;-59
2023/10/17 10:18:35;;;;;;;5.60;3.40;;;;;;;9.18;72.59;100665.15;105666;1307;22574;-57
2023/10/17 10:21:53;;;;;;;7.10;2.90;;;;;;;9.17;73.51;100667.73;105992;1304;22251;-56
2023/10/17 10:24:26;;;;;;;5.50;3.20;;;;;;;9.15;73.92;100663.70;105552;1304;23234;-57
2023/10/17 10:30:18;;;;;;;5.30;3.30;;;;;;;9.26;75.92;100657.75;106296;1291;23038;-60
2023/10/17 10:32:50;;;;;;;5.50;3.10;;;;;;;9.47;74.65;100660.05;104943;1304;22376;-59
2023/10/17 10:35:43;;;;;;;8.30;2.90;;;;;;;9.54;71.81;100658.56;106282;1288;22653;-55
2023/10/17 10:38:46;;;;;;;5.80;3.10;;;;;;;9.51;70.74;100656.79;106230;1301;23333;-59
2023/10/17 10:42:38;;;;;;;7.80;2.80;;;;;;;9.55;70.99;100648.64;105969;1296;22718;-57
2023/10/17 10:45:56;;;;;;;6.10;2.60;;;;;;;9.82;70.49;100650.45;107183;1285;22599;-55
2023/10/17 10:48:48;;;;;;;5.50;3.10;;;;;;;10.11;70.13;100649.65;105593;1296;22524;-57
2023/10/17 10:51:26;;;;;;;4.90;3.60;;;;;;;10.35;69.62;100643.39;106230;1295;22255;-58
2023/10/17 10:53:59;;;;;;;4.50;2.50;;;;;;;10.53;69.22;100640.54;106191;1296;25339;-58
2023/10/17 10:56:30;;;;;;;4.90;2.40;;;;;;;10.64;68.12;100640.08;106813;1295;22578;-60
2023/10/17 10:59:02;;;;;;;3.30;2.40;;;;;;;10.62;67.55;100637.80;105976;1295;22584;-59
2023/10/17 11:01:30;;;;;;;6.70;2.30;;;;;;;10.67;68.01;100635.38;107253;1299;22394;-56
2023/10/17 11:04:07;;;;;;;5.10;3.40;;;;;;;10.86;67.37;100633.38;107243;1295;23070;-60
2023/10/17 11:06:45;;;;;;;6.50;2.60;;;;;;;10.84;65.58;100635.82;106888;1301;22606;-57
2023/10/17 11:09:25;;;;;;;5.90;3.40;;;;;;;10.70;66.06;100635.93;105437;1298;22956;-56
2023/10/17 11:11:55;;;;;;;3.50;2.40;;;;;;;10.66;67.05;100636.95;106369;1298;22452;-57
2023/10/17 11:19:29;;;;;;;5.30;2.70;;;;;;;10.43;65.92;100638.39;105871;1287;22256;-57
2023/10/17 11:22:19;;;;;;;3.50;2.80;;;;;;;10.38;65.68;100638.91;105692;1301;22437;-56
2023/10/17 11:24:55;;;;;;;4.90;3.00;;;;;;;10.45;66.16;100642.23;105721;1301;23716;-60
2023/10/17 11:27:23;;;;;;;5.90;3.00;;;;;;;10.52;66.73;100641.06;106335;1301;22641;-56
2023/10/17 11:34:38;;;;;;;4.90;2.60;;;;;;;10.82;65.58;100622.71;105482;1301;24267;-56
2023/10/17 11:37:43;;;;;;;3.60;2.40;;;;;;;10.82;63.88;100626.03;105713;1308;24345;-60
2023/10/17 11:41:15;;;;;;;5.60;2.60;;;;;;;10.67;62.89;100625.96;105345;1305;22590;-57
2023/10/17 11:44:04;;;;;;;5.60;3.30;;;;;;;10.57;63.38;100627.31;105351;1302;22598;-58
2023/10/17 11:51:35;;;;;;;3.90;2.80;;;;;;;10.60;64.88;100628.89;106435;1295;22753;-57
2023/10/17 11:54:08;;;;;;;7.80;3.40;;;;;;;10.54;63.65;100629.21;105611;1305;22601;-58
2023/10/17 11:57:22;;;;;;;4.60;2.60;;;;;;;10.47;64.04;100620.81;106072;1301;22581;-57
2023/10/17 12:00:06;;;;;;;3.50;2.40;;;;;;;10.50;63.61;100622.05;106781;1301;22619;-59
2023/10/17 12:03:45;;;;;;;3.60;2.80;;;;;;;10.56;63.42;100626.45;106040;1301;22674;-60
2023/10/17 12:06:27;;;;;;;2.80;2.00;;;;;;;10.65;62.38;100619.34;107009;1298;22272;-56
2023/10/17 12:08:56;;;;;;;4.30;2.70;;;;;;;10.72;61.24;100623.20;106316;1296;24324;-57
2023/10/17 12:15:13;;;;;;;3.70;2.40;;;;;;;10.70;61.54;100628.42;106871;1298;23336;-58
2023/10/17 12:17:54;;;;;;;4.40;2.60;;;;;;;10.68;60.93;100629.63;106176;1302;22574;-61
2023/10/17 12:20:42;;;;;;;4.60;2.30;;;;;;;10.63;59.86;100621.59;106477;1302;22565;-54
2023/10/17 12:23:21;;;;;;;8.20;3.30;;;;;;;10.60;59.50;100622.95;106253;1296;23482;-60
2023/10/17 12:26:26;;;;;;;4.60;2.60;;;;;;;10.64;58.47;100613.40;106400;1295;23435;-60
2023/10/17 12:29:05;;;;;;;5.30;3.30;;;;;;;10.75;59.33;100621.98;106492;1295;22544;-57
2023/10/17 12:31:39;;;;;;;10.70;3.60;;;;;;;10.79;59.31;100618.69;106224;1302;22950;-56
2023/10/17 12:34:29;;;;;;;4.90;2.90;;;;;;;10.76;60.34;100609.25;107100;1302;22352;-57
2023/10/17 12:37:03;;;;;;;4.40;2.30;;;;;;;10.73;60.13;100609.06;107513;1302;22388;-55
2023/10/17 12:39:32;;;;;;;5.00;2.60;;;;;;;10.71;60.67;100607.31;106758;1298;22584;-61
2023/10/17 12:42:18;;;;;;;3.50;2.20;;;;;;;10.71;61.12;100602.60;106287;1301;22267;-59
2023/10/17 12:44:55;;;;;;;5.70;2.80;;;;;;;10.79;60.89;100609.10;105850;1303;22571;-60
2023/10/17 12:47:34;;;;;;;6.30;3.10;;;;;;;10.80;61.14;100606.66;106011;1295;22559;-56
2023/10/17 12:50:04;;;;;;;7.50;3.30;;;;;;;10.81;61.08;100607.19;106280;1301;22977;-56
2023/10/17 12:52:37;;;;;;;3.40;2.30;;;;;;;10.81;61.13;100602.48;105897;1300;25316;-57
2023/10/17 12:55:07;;;;;;;5.10;2.40;;;;;;;10.81;61.24;100605.09;105433;1301;22330;-57
2023/10/17 12:57:46;;;;;;;4.30;2.20;;;;;;;10.83;60.77;100610.33;106728;1292;22338;-62
2023/10/17 13:00:25;;;;;;;4.10;2.70;;;;;;;10.83;60.54;100609.63;105646;1288;23029;-57
2023/10/17 13:02:58;;;;;;;3.70;1.80;;;;;;;10.86;60.65;100608.77;105329;1295;22604;-56
2023/10/17 13:05:28;;;;;;;10.00;4.00;;;;;;;10.89;60.31;100614.02;105988;1301;22346;-61
2023/10/17 13:08:01;;;;;;;4.10;2.30;;;;;;;10.84;59.46;100612.79;107283;1300;22330;-61
2023/10/17 13:10:36;;;;;;;2.50;1.90;;;;;;;10.84;59.43;100615.39;107335;1295;23576;-59
2023/10/17 13:13:17;;;;;;;2.40;2.00;;;;;;;10.96;59.76;100616.14;106973;1301;22531;-56
2023/10/17 13:15:46;;;;;;;4.80;2.10;;;;;;;11.19;58.72;100612.71;107363;1298;22198;-59
2023/10/17 13:18:18;;;;;;;2.50;1.70;;;;;;;11.33;58.57;100612.39;106778;1303;23303;-58
2023/10/17 13:20:50;;;;;;;4.00;2.30;;;;;;;11.35;57.86;100613.11;106643;1301;22238;-59
2023/10/17 13:23:46;;;;;;;3.10;1.60;;;;;;;11.24;56.60;100622.33;106884;1298;22579;-53
2023/10/17 13:26:19;;;;;;;5.30;2.00;;;;;;;11.13;56.92;100616.52;105622;1302;25323;-54
2023/10/17 13:28:50;;;;;;;6.40;2.10;;;;;;;11.07;56.71;100618.61;105196;1301;22208;-55
2023/10/17 13:31:20;;;;;;;2.80;2.10;;;;;;;11.05;56.85;100620.02;105272;1295;22587;-55
2023/10/17 13:34:22;;;;;;;4.90;2.10;;;;;;;11.00;55.90;100618.77;106010;1302;23107;-60
2023/10/17 13:36:55;;;;;;;3.10;1.80;;;;;;;10.92;55.54;100614.73;105387;1303;25446;-56
2023/10/17 13:39:38;;;;;;;4.20;2.10;;;;;;;10.93;55.95;100617.17;105874;1302;22584;-59
2023/10/17 13:42:20;;;;;;;4.00;1.80;;;;;;;10.93;56.75;100618.58;105852;1302;25927;-56
2023/10/17 13:45:06;;;;;;;4.40;2.50;;;;;;;10.87;57.14;100614.36;104976;1290;25416;-60
2023/10/17 13:47:49;;;;;;;4.30;2.00;;;;;;;10.89;56.89;100611.41;105171;1302;23930;-59
2023/10/17 13:50:23;;;;;;;4.30;2.10;;;;;;;11.02;55.95;100609.86;105694;1298;23371;-54
2023/10/17 13:53:06;;;;;;;5.50;2.50;;;;;;;11.12;56.14;100607.98;105866;1299;22647;-56
2023/10/17 13:55:42;;;;;;;4.50;2.40;;;;;;;11.09;56.46;100611.83;106317;1301;22604;-56
2023/10/17 13:58:12;;;;;;;4.00;2.10;;;;;;;11.02;57.08;100617.91;105987;1303;22694;-56
2023/10/17 14:00:42;;;;;;;3.80;2.80;;;;;;;11.02;57.53;100611.63;106118;1301;22337;-55
2023/10/17 14:03:14;;;;;;;7.70;2.50;;;;;;;11.15;57.98;100608.70;106541;1302;22606;-55
2023/10/17 14:05:52;;;;;;;5.00;2.90;;;;;;;11.40;57.80;100607.70;105198;1296;22564;-58
2023/10/17 14:08:25;;;;;;;5.30;3.00;;;;;;;11.58;57.10;100606.50;106262;1303;22383;-59
2023/10/17 14:11:06;;;;;;;2.50;2.30;;;;;;;11.79;57.08;100606.34;106831;1295;24180;-59
2023/10/17 14:13:41;;;;;;;4.30;3.10;;;;;;;11.98;56.42;100603.91;107947;1302;22251;-54
2023/10/17 14:16:09;;;;;;;3.80;2.20;;;;;;;12.02;56.30;100610.20;107760;1303;22603;-54
2023/10/17 14:18:42;;;;;;;8.90;3.10;;;;;;;12.10;56.24;100608.45;107495;1296;22235;-58
2023/10/17 14:21:23;;;;;;;8.10;3.60;;;;;;;12.20;55.71;100611.75;106774;1302;22356;-55
